D/T METAR WX W/DIR W/SPE G/SPE TEMP DEWP
18/02/19 08:50 EGXC 180850Z 18009KT CAVOK 07/06 Q1012 BLU NOSIG S (180°) 10.4mph 7°C 6°C
18/02/19 07:50 EGXC 180750Z 18008KT CAVOK 06/06 Q1012 BLU NOSIG S (180°) 9.2mph 6°C 6°C
18/02/19 06:50 EGXC 180650Z 19008KT CAVOK 06/06 Q1012 BLU NOSIG S (190°) 9.2mph 6°C 6°C
18/02/19 05:50 EGXC 180550Z 19008KT 9999 FEW012 OVC110 06/06 Q1012 BLU NOSIG S (190°) 9.2mph 6°C 6°C
18/02/19 04:50 EGXC 180450Z 20008KT CAVOK 06/06 Q1013 BLU SSW (200°) 9.2mph 6°C 6°C
18/02/19 03:50 EGXC 180350Z 20007KT CAVOK 06/05 Q1013 BLU SSW (200°) 8.1mph 6°C 5°C
18/02/19 02:50 EGXC 180250Z AUTO 20009KT 9999 // BKN160/// 06/06 Q1013 SSW (200°) 10.4mph 6°C 6°C
18/02/19 01:50 EGXC 180150Z AUTO 20009KT 9999 // SCT150/// SCT180/// 06/06 Q1013 SSW (200°) 10.4mph 6°C 6°C
18/02/19 00:50 EGXC 180050Z 19010KT CAVOK 06/06 Q1013 BLU S (190°) 11.5mph 6°C 6°C
17/02/19 23:50 EGXC 172350Z 20007KT CAVOK 07/06 Q1013 BLU SSW (200°) 8.1mph 7°C 6°C
17/02/19 22:50 EGXC 172250Z 20012KT CAVOK 08/06 Q1013 BLU SSW (200°) 13.8mph 8°C 6°C
17/02/19 21:50 EGXC 172150Z 20012KT CAVOK 08/07 Q1013 BLU SSW (200°) 13.8mph 8°C 7°C
17/02/19 20:50 EGXC 172050Z 19011KT CAVOK 09/07 Q1013 BLU S (190°) 12.7mph 9°C 7°C
17/02/19 19:50 EGXC 171950Z 20013KT 9999 FEW022 SCT035 10/07 Q1012 BLU SSW (200°) 15.0mph 10°C 7°C
17/02/19 18:50 EGXC 171850Z 20010KT 9999 FEW030 BKN045 11/08 Q1012 BLU SSW (200°) 11.5mph 11°C 8°C
17/02/19 17:50 EGXC 171750Z 21012KT 9999 FEW030 BKN050 12/08 Q1011 BLU SSW (210°) 13.8mph 12°C 8°C
17/02/19 16:50 EGXC 171650Z 20012KT 9999 FEW025 SCT035 BKN050 13/09 Q1011 BLU SSW (200°) 13.8mph 13°C 9°C
17/02/19 15:50 EGXC 171550Z 20013KT 9999 SCT028 BKN035 13/09 Q1011 BLU SSW (200°) 15.0mph 13°C 9°C
17/02/19 14:50 EGXC 171450Z 21011KT 9999 BKN028 13/08 Q1011 BLU SSW (210°) 12.7mph 13°C 8°C
17/02/19 13:50 EGXC 171350Z 21016KT 9999 FEW025 BKN250 14/08 Q1011 BLU SSW (210°) 18.4mph 14°C 8°C
17/02/19 12:50 EGXC 171250Z 19015KT CAVOK 13/07 Q1012 BLU S (190°) 17.3mph 13°C 7°C
17/02/19 11:50 EGXC 171150Z 18014KT CAVOK 13/08 Q1012 BLU S (180°) 16.1mph 13°C 8°C
17/02/19 10:50 EGXC 171050Z 17011KT CAVOK 10/06 Q1012 BLU S (170°) 12.7mph 10°C 6°C
17/02/19 09:50 EGXC 170950Z 17011KT 7000 HZ FEW250 08/06 Q1012 WHT HZ S (170°) 12.7mph 8°C 6°C
17/02/19 08:50 EGXC 170850Z 17009KT 6000 HZ FEW250 07/05 Q1013 WHT HZ S (170°) 10.4mph 7°C 5°C
17/02/19 07:50 EGXC 170750Z 15007KT 5000 BR FEW250 05/05 Q1014 WHT BR SSE (150°) 8.1mph 5°C 5°C
17/02/19 06:50 EGXC 170650Z 15008KT 4500 BR FEW003 06/05 Q1014 GRN BR SSE (150°) 9.2mph 6°C 5°C
17/02/19 05:50 EGXC 170550Z 16007KT 4000 BR FEW003 07/06 Q1014 GRN BR SSE (160°) 8.1mph 7°C 6°C
17/02/19 04:50 EGXC 170450Z 16011KT 5000 BR SCT005 BKN007 08/07 Q1015 YLO1 BR SSE (160°) 12.7mph 8°C 7°C
17/02/19 03:50 EGXC 170350Z 16009KT 9999 BKN010 09/08 Q1015 GRN SSE (160°) 10.4mph 9°C 8°C
17/02/19 02:50 EGXC 170250Z AUTO 19009KT 9999 // BKN013/// 09/07 Q1016 S (190°) 10.4mph 9°C 7°C
17/02/19 01:50 EGXC 170150Z 17008KT 9999 BKN014 09/08 Q1017 GRN S (170°) 9.2mph 9°C 8°C
17/02/19 00:50 EGXC 170050Z 17007KT 9999 BKN018 09/08 Q1018 WHT S (170°) 8.1mph 9°C 8°C
16/02/19 23:50 EGXC 162350Z 17008KT 9999 FEW025 09/08 Q1018 BLU S (170°) 9.2mph 9°C 8°C
16/02/19 22:50 EGXC 162250Z 18008KT 9999 BKN025 10/09 Q1019 BLU S (180°) 9.2mph 10°C 9°C
16/02/19 21:50 EGXC 162150Z 18008KT 9999 SCT022 BKN025 10/09 Q1019 WHT S (180°) 9.2mph 10°C 9°C
16/02/19 20:50 EGXC 162050Z 18007KT 9999 BKN032 10/09 Q1019 BLU S (180°) 8.1mph 10°C 9°C
16/02/19 19:50 EGXC 161950Z 18009KT 9999 BKN032 10/09 Q1019 BLU S (180°) 10.4mph 10°C 9°C
16/02/19 18:50 EGXC 161850Z 19008KT 9999 SCT035 10/09 Q1019 BLU S (190°) 9.2mph 10°C 9°C
16/02/19 17:50 EGXC 161750Z 18007KT 9999 FEW030 10/08 Q1019 BLU S (180°) 8.1mph 10°C 8°C
16/02/19 16:50 EGXC 161650Z 21010KT 9999 FEW025 12/08 Q1019 BLU SSW (210°) 11.5mph 12°C 8°C
16/02/19 15:50 EGXC 161550Z 21012KT 9999 FEW022 BKN028 13/10 Q1019 BLU SSW (210°) 13.8mph 13°C 10°C
16/02/19 14:50 EGXC 161450Z 20013KT 9999 BKN025 13/09 Q1019 BLU SSW (200°) 15.0mph 13°C 9°C
16/02/19 13:50 EGXC 161350Z 22011KT 9999 FEW025 14/08 Q1020 BLU SW (220°) 12.7mph 14°C 8°C
16/02/19 12:50 EGXC 161250Z 23016KT 9999 SCT025 14/08 Q1020 BLU SW (230°) 18.4mph 14°C 8°C
16/02/19 11:50 EGXC 161150Z 24008KT 9999 SCT020 BKN030 12/08 Q1021 WHT WSW (240°) 9.2mph 12°C 8°C
16/02/19 10:50 EGXC 161050Z 21009KT 9999 SCT018 BKN030 11/08 Q1021 WHT SSW (210°) 10.4mph 11°C 8°C
16/02/19 09:50 EGXC 160950Z 20009KT 8000 HZ FEW012 SCT016 BKN025 09/08 Q1021 WHT HZ SSW (200°) 10.4mph 9°C 8°C
16/02/19 08:50 EGXC 160850Z 19006KT 6000 HZ SCT023 BKN250 08/07 Q1021 WHT HZ S (190°) 6.9mph 8°C 7°C
16/02/19 07:50 EGXC 160750Z 20007KT 6000 BR BKN028 06/06 Q1020 WHT BR SSW (200°) 8.1mph 6°C 6°C
16/02/19 06:50 EGXC 160650Z 15005KT 8000 HZ SCT025 SCT250 06/05 Q1020 BLU HZ SSE (150°) 5.8mph 6°C 5°C
16/02/19 05:50 EGXC 160550Z 18006KT 9999 BKN025 06/05 Q1019 BLU S (180°) 6.9mph 6°C 5°C
16/02/19 04:50 EGXC 160450Z 18009KT 9999 BKN022 06/04 Q1019 WHT S (180°) 10.4mph 6°C 4°C
16/02/19 03:50 EGXC 160350Z 18006KT 9999 BKN022 04/03 Q1019 WHT S (180°) 6.9mph 4°C 3°C
16/02/19 02:50 EGXC 160250Z 17003KT CAVOK 05/03 Q1019 BLU S (170°) 3.5mph 5°C 3°C
16/02/19 01:50 EGXC 160150Z 19008KT CAVOK 05/03 Q1020 BLU S (190°) 9.2mph 5°C 3°C
16/02/19 00:50 EGXC 160050Z 17006KT CAVOK 05/03 Q1020 BLU S (170°) 6.9mph 5°C 3°C
15/02/19 23:50 EGXC 152350Z 19009KT CAVOK 06/03 Q1020 BLU S (190°) 10.4mph 6°C 3°C
15/02/19 22:50 EGXC 152250Z 19008KT CAVOK 06/03 Q1020 BLU S (190°) 9.2mph 6°C 3°C
15/02/19 21:50 EGXC 152150Z 19009KT CAVOK 06/04 Q1021 BLU S (190°) 10.4mph 6°C 4°C
15/02/19 20:50 EGXC 152050Z 18009KT CAVOK 07/04 Q1021 BLU S (180°) 10.4mph 7°C 4°C
15/02/19 19:50 EGXC 151950Z 18012KT CAVOK 08/04 Q1021 BLU S (180°) 13.8mph 8°C 4°C
15/02/19 18:50 EGXC 151850Z 18009KT CAVOK 08/05 Q1022 BLU S (180°) 10.4mph 8°C 5°C
15/02/19 17:50 EGXC 151750Z 18009KT CAVOK 09/06 Q1022 BLU S (180°) 10.4mph 9°C 6°C
15/02/19 16:50 EGXC 151650Z 18009KT CAVOK 10/06 Q1022 BLU NOSIG S (180°) 10.4mph 10°C 6°C
15/02/19 15:50 EGXC 151550Z 18008KT CAVOK 12/07 Q1023 BLU NOSIG S (180°) 9.2mph 12°C 7°C
15/02/19 14:50 EGXC 151450Z 19010KT CAVOK 12/07 Q1023 BLU NOSIG S (190°) 11.5mph 12°C 7°C
15/02/19 13:50 EGXC 151350Z 19010KT CAVOK 11/07 Q1024 BLU NOSIG S (190°) 11.5mph 11°C 7°C
15/02/19 12:50 EGXC 151250Z 18011KT 9000 HZ SKC 10/06 Q1025 BLU NOSIG HZ S (180°) 12.7mph 10°C 6°C
15/02/19 12:26 EGXC 151226Z 18010KT 9000 HZ SKC 09/06 Q1025 BLU NOSIG HZ S (180°) 11.5mph 9°C 6°C
15/02/19 11:50 EGXC 151150Z 19010KT 7000 HZ SKC 08/05 Q1026 WHT BECMG 9999 NSW BLU HZ S (190°) 11.5mph 8°C 5°C
15/02/19 10:50 EGXC 151050Z 17008KT 5000 HZ SKC 06/04 Q1026 WHT BECMG 8000 BLU HZ S (170°) 9.2mph 6°C 4°C
15/02/19 09:50 EGXC 150950Z 17006KT 4000 HZ FEW250 04/03 Q1027 GRN BECMG 6000 WHT HZ S (170°) 6.9mph 4°C 3°C
15/02/19 08:50 EGXC 150850Z 12002KT 2800 BR FEW250 02/01 Q1027 YLO1 BECMG 6000 HZ WHT BR ESE (120°) 2.3mph 2°C 1°C
15/02/19 07:50 EGXC 150750Z 13003KT 3000 2000E BR SKC M01/M01 Q1027 YLO2 BECMG 3500 YLO1 BR SE (130°) 3.5mph -1°C -1°C
15/02/19 06:50 EGXC 150650Z 13001KT 2000 MIFG BR SKC M02/M02 Q1027 YLO2 TEMPO 0500 FZFG VV/// RED MIFG BR SE (130°) 1.2mph -2°C -2°C
15/02/19 05:50 EGXC 150550Z 10002KT 4500 BR SKC 00/M00 Q1027 GRN BR E (100°) 2.3mph 0°C 0°C
15/02/19 04:50 EGXC 150450Z 10004KT 4000 MIFG BR SKC M01/M01 Q1027 GRN MIFG BR E (100°) 4.6mph -1°C -1°C
15/02/19 03:50 EGXC 150350Z 14004KT 5000 BR SKC 00/M00 Q1027 WHT BR SE (140°) 4.6mph 0°C 0°C
15/02/19 02:50 EGXC 150250Z 14003KT 5000 BR SKC M01/M01 Q1028 WHT BR SE (140°) 3.5mph -1°C -1°C
15/02/19 01:50 EGXC 150150Z 16005KT 6000 BR SKC 01/M00 Q1028 WHT BR SSE (160°) 5.8mph 1°C 0°C
15/02/19 00:50 EGXC 150050Z 16006KT 7000 BR SKC 01/01 Q1029 WHT BR SSE (160°) 6.9mph 1°C 1°C
14/02/19 23:50 EGXC 142350Z 15004KT 9000 HZ FEW250 01/00 Q1029 BLU HZ SSE (150°) 4.6mph 1°C 0°C
14/02/19 22:50 EGXC 142250Z 16005KT CAVOK 02/01 Q1029 BLU SSE (160°) 5.8mph 2°C 1°C
14/02/19 21:50 EGXC 142150Z 15006KT CAVOK 03/02 Q1029 BLU SSE (150°) 6.9mph 3°C 2°C
14/02/19 20:50 EGXC 142050Z 15006KT CAVOK 03/02 Q1029 BLU SSE (150°) 6.9mph 3°C 2°C
14/02/19 19:50 EGXC 141950Z 11004KT CAVOK 05/03 Q1029 BLU ESE (110°) 4.6mph 5°C 3°C
14/02/19 18:50 EGXC 141850Z 14004KT CAVOK 05/03 Q1030 BLU SE (140°) 4.6mph 5°C 3°C
14/02/19 17:50 EGXC 141750Z 14004KT CAVOK 06/04 Q1030 BLU SE (140°) 4.6mph 6°C 4°C
14/02/19 16:50 EGXC 141650Z 16004KT CAVOK 08/05 Q1030 BLU SSE (160°) 4.6mph 8°C 5°C
14/02/19 15:50 EGXC 141550Z 18006KT CAVOK 11/06 Q1030 BLU NOSIG S (180°) 6.9mph 11°C 6°C
14/02/19 14:50 EGXC 141450Z 18008KT CAVOK 11/06 Q1030 BLU NOSIG S (180°) 9.2mph 11°C 6°C
14/02/19 13:50 EGXC 141350Z 20011KT CAVOK 11/06 Q1031 BLU NOSIG SSW (200°) 12.7mph 11°C 6°C
14/02/19 12:50 EGXC 141250Z 19008KT CAVOK 10/06 Q1031 BLU NOSIG S (190°) 9.2mph 10°C 6°C
14/02/19 12:08 EGXC 141208Z 19007KT 8000 HZ SCT280 09/06 Q1032 BLU NOSIG HZ S (190°) 8.1mph 9°C 6°C
14/02/19 11:19 EGXC 141119Z 18007KT 8000 HZ FEW220 08/05 Q1032 BLACKBLU HZ S (180°) 8.1mph 8°C 5°C
14/02/19 09:36 EGXC 140936Z 12005KT 4000 HZ FEW220 BKN280 04/03 Q1032 GRN BECMG 7000 HZ WHT HZ ESE (120°) 5.8mph 4°C 3°C
14/02/19 08:50 EGXC 140850Z 22006KT 3500 BR FEW220 BKN280 02/02 Q1032 YLO1 BECMG 7000 WHT BR SW (220°) 6.9mph 2°C 2°C
14/02/19 07:50 EGXC 140750Z 13003KT 2000 BR FEW220 BKN280 00/00 Q1032 YLO2 BECMG 4000 GRN BR SE (130°) 3.5mph 0°C 0°C
14/02/19 06:50 EGXC 140650Z 21006KT 3000 BR SCT250 01/01 Q1031 YLO1 BECMG 7000 BR WHT BR SSW (210°) 6.9mph 1°C 1°C
14/02/19 06:13 EGXC 140613Z 17004KT 3000 BR SCT250 01/01 Q1031 YLO1 BR S (170°) 4.6mph 1°C 1°C
14/02/19 04:50 EGXC 140450Z 21009KT 7000 BR SCT250 02/02 Q1031 WHT BR SSW (210°) 10.4mph 2°C 2°C
14/02/19 03:50 EGXC 140350Z 15005KT 5000 BR SCT250 01/01 Q1031 WHT BR SSE (150°) 5.8mph 1°C 1°C
14/02/19 02:50 EGXC 140250Z 15002KT CAVOK 03/02 Q1031 BLU SSE (150°) 2.3mph 3°C 2°C
14/02/19 01:50 EGXC 140150Z 20008KT CAVOK 03/03 Q1031 BLU SSW (200°) 9.2mph 3°C 3°C
14/02/19 00:50 EGXC 140050Z 18006KT CAVOK 03/02 Q1031 BLU S (180°) 6.9mph 3°C 2°C
13/02/19 23:50 EGXC 132350Z 17006KT CAVOK 04/03 Q1031 BLU S (170°) 6.9mph 4°C 3°C
13/02/19 22:50 EGXC 132250Z 16004KT CAVOK 03/03 Q1030 BLU SSE (160°) 4.6mph 3°C 3°C
13/02/19 21:50 EGXC 132150Z 12003KT CAVOK 02/01 Q1030 BLU ESE (120°) 3.5mph 2°C 1°C
13/02/19 20:50 EGXC 132050Z 18007KT CAVOK 05/04 Q1030 BLU S (180°) 8.1mph 5°C 4°C
13/02/19 19:50 EGXC 131950Z 18008KT CAVOK 06/04 Q1030 BLU NOSIG S (180°) 9.2mph 6°C 4°C
13/02/19 18:50 EGXC 131850Z 19002KT CAVOK 07/05 Q1030 BLU NOSIG S (190°) 2.3mph 7°C 5°C
13/02/19 17:50 EGXC 131750Z 21008KT CAVOK 08/05 Q1030 BLU NOSIG SSW (210°) 9.2mph 8°C 5°C
13/02/19 16:50 EGXC 131650Z 22009KT CAVOK 10/06 Q1029 BLU NOSIG SW (220°) 10.4mph 10°C 6°C
13/02/19 15:50 EGXC 131550Z 22012KT CAVOK 11/05 Q1029 BLU NOSIG SW (220°) 13.8mph 11°C 5°C
13/02/19 14:50 EGXC 131450Z 21013KT CAVOK 12/07 Q1029 BLU NOSIG SSW (210°) 15.0mph 12°C 7°C
13/02/19 13:50 EGXC 131350Z 22014KT CAVOK 12/06 Q1030 BLU NOSIG SW (220°) 16.1mph 12°C 6°C
13/02/19 12:50 EGXC 131250Z 22015KT 9999 FEW020 SCT250 12/07 Q1030 BLU NOSIG SW (220°) 17.3mph 12°C 7°C
13/02/19 11:50 EGXC 131150Z 22015KT 9999 FEW020 SCT250 12/07 Q1030 BLU NOSIG SW (220°) 17.3mph 12°C 7°C
13/02/19 10:50 EGXC 131050Z 23015KT 9999 FEW024 BKN250 11/06 Q1030 BLU TEMPO SCT020 WHT SW (230°) 17.3mph 11°C 6°C
13/02/19 09:50 EGXC 130950Z 20010KT 9999 BKN024 09/07 Q1030 WHT TEMPO FEW024 BLU SSW (200°) 11.5mph 9°C 7°C
13/02/19 08:50 EGXC 130850Z 19006KT 9999 BKN017 07/06 Q1030 WHT NOSIG S (190°) 6.9mph 7°C 6°C
13/02/19 07:50 EGXC 130750Z 20007KT 9999 BKN022 BKN180 06/06 Q1030 WHT NOSIG SSW (200°) 8.1mph 6°C 6°C
13/02/19 06:50 EGXC 130650Z 20007KT 9999 FEW022 BKN180 05/05 Q1030 BLU TEMPO SCT022 WHT SSW (200°) 8.1mph 5°C 5°C
13/02/19 05:50 EGXC 130550Z 19007KT CAVOK 06/05 Q1030 BLU S (190°) 8.1mph 6°C 5°C
13/02/19 04:50 EGXC 130450Z 19007KT CAVOK 06/05 Q1030 BLU S (190°) 8.1mph 6°C 5°C
13/02/19 03:50 EGXC 130350Z 20007KT CAVOK 07/06 Q1030 BLU SSW (200°) 8.1mph 7°C 6°C
13/02/19 02:50 EGXC 130250Z 21004KT 9999 BKN045 OVC180 08/07 Q1031 BLU SSW (210°) 4.6mph 8°C 7°C
13/02/19 01:50 EGXC 130150Z 22007KT 9999 BKN048 OVC200 07/06 Q1031 BLU SW (220°) 8.1mph 7°C 6°C
13/02/19 00:50 EGXC 130050Z 22007KT CAVOK 06/05 Q1031 BLU SW (220°) 8.1mph 6°C 5°C
12/02/19 23:50 EGXC 122350Z 20006KT 9999 BKN045 BKN180 06/05 Q1031 BLU SSW (200°) 6.9mph 6°C 5°C
12/02/19 22:50 EGXC 122250Z 21009KT 9999 BKN040 BKN070 07/06 Q1031 BLU SSW (210°) 10.4mph 7°C 6°C
12/02/19 21:50 EGXC 122150Z 20009KT 9999 FEW021 BKN042 BKN060 08/06 Q1031 BLU SSW (200°) 10.4mph 8°C 6°C
12/02/19 20:50 EGXC 122050Z 22009KT 9999 BKN021 BKN040 07/06 Q1030 WHT SW (220°) 10.4mph 7°C 6°C
12/02/19 19:50 EGXC 121950Z 23008KT 9999 BKN023 BKN040 08/06 Q1030 WHT SW (230°) 9.2mph 8°C 6°C
12/02/19 18:50 EGXC 121850Z 21010KT 9999 BKN025 08/06 Q1030 BLU TEMPO BKN020 WHT SSW (210°) 11.5mph 8°C 6°C
12/02/19 17:50 EGXC 121750Z 20009KT 9999 FEW020 SCT030 BKN250 08/06 Q1030 BLU TEMPO SCT020 WHT SSW (200°) 10.4mph 8°C 6°C
12/02/19 16:50 EGXC 121650Z 22009KT 9999 SCT020 BKN250 09/06 Q1029 WHT TEMPO FEW020 BLU SW (220°) 10.4mph 9°C 6°C
12/02/19 16:13 EGXC 121613Z 20008KT 9999 FEW020 BKN250 09/06 Q1029 BLU TEMPO SCT020 WHT SSW (200°) 9.2mph 9°C 6°C
12/02/19 14:50 EGXC 121450Z 23011KT 9999 BKN022 BKN045 10/06 Q1030 WHT TEMPO FEW022 BLU SW (230°) 12.7mph 10°C 6°C
12/02/19 14:36 EGXC 121436Z 24011KT 9999 SCT022 BKN045 10/06 Q1030 WHT TEMPO FEW022 BLU WSW (240°) 12.7mph 10°C 6°C
12/02/19 13:50 EGXC 121350Z 24011KT 9999 FEW018 BKN040 10/06 Q1029 BLU TEMPO SCT018 WHT WSW (240°) 12.7mph 10°C 6°C
12/02/19 12:50 EGXC 121250Z 23010KT 9999 FEW040 SCT110 BKN250 09/06 Q1029 BLU TEMPO BKN020 WHT SW (230°) 11.5mph 9°C 6°C
12/02/19 11:50 EGXC 121150Z 20009KT CAVOK 08/06 Q1030 BLU NOSIG SSW (200°) 10.4mph 8°C 6°C